Time;durP1;ratioP1;P1;durP2;ratioP2;P2;SDS_P1;SDS_P2;PMS_P1;PMS_P2;Temp;Humidity;BMP_temperature;BMP_pressure;BME280_temperature;BME280_humidity;BME280_pressure;Samples;Min_cycle;Max_cycle;Signal;HPM_P1;HPM_P2
2023/07/18 00:00:38;;;;;;;6.38;5.50;;;24.50;70.20;;;;;;4974395;28;20023;-57
2023/07/18 00:03:05;;;;;;;6.88;5.70;;;24.50;70.20;;;;;;4974505;28;20027;-59
2023/07/18 00:05:36;;;;;;;6.40;5.65;;;24.50;70.10;;;;;;4974462;28;20046;-59
2023/07/18 00:08:01;;;;;;;6.03;5.28;;;24.50;70.10;;;;;;4974668;28;20031;-59
2023/07/18 00:10:27;;;;;;;6.18;5.43;;;24.50;70.10;;;;;;4974453;28;20042;-58
2023/07/18 00:12:53;;;;;;;7.22;5.15;;;24.50;70.10;;;;;;4974302;28;20027;-58
2023/07/18 00:15:19;;;;;;;9.27;6.07;;;24.50;70.00;;;;;;4973020;28;20027;-59
2023/07/18 00:17:44;;;;;;;6.45;5.15;;;24.50;69.90;;;;;;4974064;28;20027;-58
2023/07/18 00:20:13;;;;;;;6.55;5.57;;;24.50;69.90;;;;;;4974300;28;20030;-59
2023/07/18 00:22:47;;;;;;;8.07;5.20;;;24.50;69.80;;;;;;4974516;28;20034;-58
2023/07/18 00:25:16;;;;;;;7.28;5.70;;;24.50;69.80;;;;;;4974212;28;20408;-59
2023/07/18 00:27:42;;;;;;;8.48;5.85;;;24.50;69.80;;;;;;4974289;28;20105;-59
2023/07/18 00:30:12;;;;;;;7.50;5.80;;;24.50;69.70;;;;;;4973884;28;20031;-59
2023/07/18 00:32:38;;;;;;;7.55;5.65;;;24.50;69.70;;;;;;4973493;28;20034;-59
2023/07/18 00:35:04;;;;;;;7.88;5.53;;;24.50;69.60;;;;;;4973818;28;20022;-59
2023/07/18 00:37:31;;;;;;;7.38;5.90;;;24.50;69.70;;;;;;4974051;28;20023;-59
2023/07/18 00:39:57;;;;;;;7.03;5.55;;;24.50;69.60;;;;;;4973723;28;20030;-58
2023/07/18 00:42:23;;;;;;;8.77;6.32;;;24.50;69.60;;;;;;4973698;28;20398;-59
2023/07/18 00:44:49;;;;;;;10.30;7.70;;;24.40;69.50;;;;;;4973882;28;20030;-58
2023/07/18 00:47:15;;;;;;;10.00;6.90;;;24.40;69.50;;;;;;4973624;28;20023;-59
2023/07/18 00:49:42;;;;;;;10.18;6.95;;;24.40;69.60;;;;;;4973655;28;20407;-58
2023/07/18 00:52:08;;;;;;;12.55;8.02;;;24.40;69.60;;;;;;4973802;28;20023;-59
2023/07/18 00:54:34;;;;;;;11.02;7.18;;;24.40;69.60;;;;;;4973500;28;20098;-59
2023/07/18 00:57:00;;;;;;;8.52;6.95;;;24.40;69.60;;;;;;4973353;28;20515;-59
2023/07/18 00:59:27;;;;;;;8.70;6.57;;;24.40;69.70;;;;;;4973510;28;20027;-58
2023/07/18 01:01:53;;;;;;;7.07;5.15;;;24.40;69.70;;;;;;4974006;28;20033;-59
2023/07/18 01:04:19;;;;;;;5.93;5.25;;;24.40;69.70;;;;;;4973248;28;20027;-58
2023/07/18 01:06:46;;;;;;;6.38;5.75;;;24.30;69.70;;;;;;4973340;28;20027;-59
2023/07/18 01:09:12;;;;;;;8.05;5.95;;;24.30;69.80;;;;;;4973459;28;20037;-58
2023/07/18 01:11:38;;;;;;;6.28;5.20;;;24.30;70.00;;;;;;4973512;28;20109;-57
2023/07/18 01:14:04;;;;;;;6.93;5.10;;;24.30;69.90;;;;;;4973089;28;20037;-58
2023/07/18 01:16:30;;;;;;;5.53;4.75;;;24.30;70.00;;;;;;4972958;28;20723;-58
2023/07/18 01:18:56;;;;;;;5.78;5.20;;;24.20;70.10;;;;;;4973209;28;20499;-59
2023/07/18 01:21:25;;;;;;;6.55;5.00;;;24.20;70.80;;;;;;4972966;28;20014;-59
2023/07/18 01:23:51;;;;;;;5.50;4.70;;;24.20;70.10;;;;;;4972938;28;20031;-59
2023/07/18 01:26:17;;;;;;;5.65;4.75;;;24.10;69.90;;;;;;4972942;28;20114;-59
2023/07/18 01:28:43;;;;;;;6.28;5.40;;;24.10;69.80;;;;;;4972804;28;20506;-59
2023/07/18 01:31:09;;;;;;;7.03;4.70;;;24.10;69.80;;;;;;4972878;28;20022;-58
2023/07/18 01:33:34;;;;;;;5.75;5.15;;;24.10;69.80;;;;;;4973073;28;20442;-58
2023/07/18 01:36:00;;;;;;;6.00;5.20;;;24.10;69.80;;;;;;4972711;28;20148;-57
2023/07/18 01:38:29;;;;;;;6.10;5.35;;;24.10;69.80;;;;;;4973015;28;20027;-58
2023/07/18 01:40:59;;;;;;;6.47;5.30;;;24.10;69.80;;;;;;4972698;28;20514;-58
2023/07/18 01:43:25;;;;;;;6.67;5.30;;;24.10;70.30;;;;;;4972697;28;20387;-58
2023/07/18 01:45:51;;;;;;;6.57;5.55;;;24.00;69.70;;;;;;4972692;28;20031;-58
2023/07/18 01:48:16;;;;;;;6.57;5.70;;;24.00;69.60;;;;;;4972672;28;20037;-58
2023/07/18 01:50:43;;;;;;;6.72;5.55;;;24.00;69.60;;;;;;4972632;28;20062;-58
2023/07/18 01:53:10;;;;;;;8.57;6.03;;;24.00;69.60;;;;;;4972915;28;20030;-58
2023/07/18 01:55:37;;;;;;;6.10;5.50;;;24.00;69.50;;;;;;4972845;28;20509;-59
2023/07/18 01:58:03;;;;;;;6.22;5.60;;;24.00;69.50;;;;;;4972384;28;20138;-56
2023/07/18 02:00:30;;;;;;;7.95;6.30;;;24.00;69.50;;;;;;4972722;28;20098;-58
2023/07/18 02:02:57;;;;;;;7.22;6.05;;;24.00;69.50;;;;;;4972408;28;20019;-58
2023/07/18 02:05:28;;;;;;;8.13;6.22;;;24.00;69.60;;;;;;4972728;28;20030;-59
2023/07/18 02:07:54;;;;;;;7.60;6.20;;;23.90;69.50;;;;;;4972756;28;20034;-58
2023/07/18 02:10:21;;;;;;;6.80;5.78;;;23.90;69.60;;;;;;4972778;28;20034;-58
2023/07/18 02:12:47;;;;;;;6.78;5.68;;;23.90;69.60;;;;;;4972780;28;20045;-58
2023/07/18 02:15:13;;;;;;;6.20;5.20;;;23.90;69.50;;;;;;4972452;28;20039;-58
2023/07/18 02:17:39;;;;;;;8.13;5.40;;;23.90;69.70;;;;;;4971015;28;20606;-59
2023/07/18 02:20:07;;;;;;;6.85;5.78;;;23.90;69.60;;;;;;4972263;28;20407;-58
2023/07/18 02:22:34;;;;;;;7.85;5.85;;;23.90;69.60;;;;;;4972527;28;20101;-59
2023/07/18 02:25:02;;;;;;;7.03;6.07;;;23.90;69.70;;;;;;4972289;28;20154;-58
2023/07/18 02:27:27;;;;;;;6.07;5.28;;;23.90;69.60;;;;;;4972447;28;20026;-58
2023/07/18 02:29:53;;;;;;;6.25;5.65;;;23.90;69.70;;;;;;4972221;28;20393;-58
2023/07/18 02:32:21;;;;;;;6.88;5.50;;;23.90;69.60;;;;;;4972365;28;20050;-58
2023/07/18 02:34:47;;;;;;;5.32;4.82;;;23.90;69.60;;;;;;4971958;28;20039;-57
2023/07/18 02:37:13;;;;;;;6.20;5.50;;;23.90;69.50;;;;;;4972330;28;20038;-57
2023/07/18 02:39:39;;;;;;;5.53;5.03;;;24.00;69.70;;;;;;4972236;28;20058;-59
2023/07/18 02:42:06;;;;;;;6.18;5.28;;;24.00;69.60;;;;;;4972051;28;20027;-58
2023/07/18 02:44:32;;;;;;;6.22;5.47;;;24.00;69.70;;;;;;4972329;28;20026;-58
2023/07/18 02:46:58;;;;;;;6.15;5.18;;;24.00;69.60;;;;;;4972600;28;20041;-59
2023/07/18 02:49:24;;;;;;;6.60;5.18;;;24.00;69.60;;;;;;4972051;28;20539;-58
2023/07/18 02:51:49;;;;;;;6.18;5.18;;;24.00;69.60;;;;;;4972136;28;20022;-58
2023/07/18 02:54:15;;;;;;;6.28;5.40;;;24.00;69.50;;;;;;4972511;28;20082;-58
2023/07/18 02:56:40;;;;;;;6.22;5.45;;;24.00;69.40;;;;;;4975889;28;20115;-58
2023/07/18 02:59:06;;;;;;;7.35;5.50;;;24.00;69.40;;;;;;4975894;28;20121;-58
2023/07/18 03:01:34;;;;;;;7.45;5.35;;;24.00;69.30;;;;;;4975372;28;20030;-58
2023/07/18 03:04:00;;;;;;;6.03;5.43;;;24.00;69.40;;;;;;4975792;28;20364;-57
2023/07/18 03:06:27;;;;;;;6.82;5.65;;;24.00;69.40;;;;;;4975751;28;20093;-58
2023/07/18 03:08:53;;;;;;;5.95;5.35;;;24.00;69.50;;;;;;4975435;28;20061;-59
2023/07/18 03:11:19;;;;;;;7.43;6.32;;;24.00;69.40;;;;;;4975461;28;20530;-58
2023/07/18 03:13:45;;;;;;;6.18;5.53;;;24.00;69.40;;;;;;4975427;28;20034;-59
2023/07/18 03:16:10;;;;;;;6.45;5.80;;;24.00;69.40;;;;;;4975171;28;20046;-55
2023/07/18 03:18:36;;;;;;;6.93;5.85;;;24.00;69.40;;;;;;4975289;28;20034;-59
2023/07/18 03:21:02;;;;;;;6.93;5.97;;;24.00;69.50;;;;;;4975136;28;20031;-59
2023/07/18 03:23:28;;;;;;;6.80;5.90;;;24.00;69.30;;;;;;4975321;28;20034;-59
2023/07/18 03:25:53;;;;;;;7.15;5.38;;;24.10;69.20;;;;;;4975373;28;20037;-58
2023/07/18 03:28:19;;;;;;;7.35;5.47;;;24.10;69.10;;;;;;4975186;28;20086;-59
2023/07/18 03:30:46;;;;;;;6.72;5.63;;;24.20;69.70;;;;;;4974911;28;20031;-58
2023/07/18 03:33:12;;;;;;;6.85;5.35;;;24.30;69.20;;;;;;4974532;28;20395;-58
2023/07/18 03:35:38;;;;;;;6.10;5.50;;;24.40;69.40;;;;;;4974063;28;20041;-59
2023/07/18 03:38:04;;;;;;;6.18;5.45;;;24.50;69.30;;;;;;4974850;28;20042;-58
2023/07/18 03:40:30;;;;;;;6.15;5.55;;;24.70;69.20;;;;;;4975086;28;20069;-57
2023/07/18 03:42:56;;;;;;;8.40;5.82;;;24.80;69.00;;;;;;4974815;28;20492;-58
2023/07/18 03:45:21;;;;;;;5.63;5.07;;;25.10;68.90;;;;;;4974733;28;20031;-58
2023/07/18 03:47:47;;;;;;;6.38;5.05;;;25.40;68.60;;;;;;4973143;28;20229;-58
2023/07/18 03:50:16;;;;;;;5.57;5.03;;;25.70;68.40;;;;;;4971335;28;20035;-59
2023/07/18 03:52:42;;;;;;;6.10;5.20;;;26.10;67.90;;;;;;4971076;28;20059;-59
2023/07/18 03:55:08;;;;;;;6.20;5.30;;;26.60;67.30;;;;;;4972909;28;20033;-58
2023/07/18 03:57:34;;;;;;;6.72;5.35;;;27.20;66.40;;;;;;4972541;28;20106;-57
2023/07/18 04:00:03;;;;;;;6.38;5.03;;;27.90;65.00;;;;;;4972632;28;20033;-58
2023/07/18 04:02:29;;;;;;;8.27;5.78;;;28.50;63.50;;;;;;4972879;28;20030;-59
2023/07/18 04:04:54;;;;;;;6.32;5.28;;;29.20;62.30;;;;;;4972689;28;20027;-58
2023/07/18 04:07:21;;;;;;;7.78;4.85;;;29.90;61.20;;;;;;4973883;28;20471;-59
2023/07/18 04:09:46;;;;;;;7.93;5.38;;;30.70;59.90;;;;;;4974246;28;20024;-58
2023/07/18 04:12:13;;;;;;;5.70;5.10;;;31.30;58.70;;;;;;4974304;28;20038;-58
2023/07/18 04:14:43;;;;;;;5.60;4.35;;;32.00;57.40;;;;;;4956906;28;20109;-58
2023/07/18 04:17:09;;;;;;;17.33;5.10;;;32.70;56.70;;;;;;4973066;28;20376;-59
2023/07/18 04:19:35;;;;;;;5.07;4.22;;;33.30;55.80;;;;;;4974291;28;20089;-58
2023/07/18 04:22:01;;;;;;;5.43;4.15;;;33.70;54.60;;;;;;4974359;28;20034;-59
2023/07/18 04:24:26;;;;;;;5.07;4.15;;;34.20;54.00;;;;;;4974048;28;20034;-59
2023/07/18 04:26:52;;;;;;;4.80;3.90;;;34.70;53.60;;;;;;4974289;28;20027;-60
2023/07/18 04:29:18;;;;;;;5.97;4.13;;;35.20;53.00;;;;;;4974001;28;20082;-59
2023/07/18 04:31:45;;;;;;;4.68;3.50;;;35.70;52.40;;;;;;4974104;28;20097;-57
2023/07/18 04:34:11;;;;;;;5.50;3.78;;;36.20;51.90;;;;;;4974080;28;20027;-59
2023/07/18 04:36:37;;;;;;;5.10;4.15;;;36.70;51.20;;;;;;4974014;28;20035;-59
2023/07/18 04:39:03;;;;;;;6.75;4.40;;;37.20;50.70;;;;;;4974058;28;20019;-59
2023/07/18 04:41:29;;;;;;;5.03;4.53;;;37.60;50.20;;;;;;4974065;28;20053;-59
2023/07/18 04:43:55;;;;;;;4.72;4.07;;;38.00;49.80;;;;;;4973520;28;20495;-58
2023/07/18 04:46:20;;;;;;;5.22;4.00;;;38.40;49.50;;;;;;4973738;28;20035;-60
2023/07/18 04:48:46;;;;;;;6.55;3.72;;;38.80;49.00;;;;;;4972598;28;20026;-60
2023/07/18 04:51:11;;;;;;;4.68;4.05;;;39.10;48.80;;;;;;4973592;28;20444;-58
2023/07/18 04:53:37;;;;;;;5.22;3.70;;;39.50;48.40;;;;;;4973528;28;20391;-58
2023/07/18 04:56:04;;;;;;;5.57;3.67;;;39.80;48.00;;;;;;4973648;28;20114;-59
2023/07/18 04:58:29;;;;;;;3.67;3.33;;;40.00;47.90;;;;;;4973376;28;20042;-58
2023/07/18 05:00:56;;;;;;;3.78;3.28;;;40.30;47.40;;;;;;4973465;28;20490;-59
2023/07/18 05:03:23;;;;;;;4.70;3.50;;;40.50;47.00;;;;;;4973374;28;20074;-60
2023/07/18 05:05:49;;;;;;;4.50;3.42;;;40.60;46.60;;;;;;4973169;28;20026;-60
2023/07/18 05:08:16;;;;;;;4.93;3.47;;;40.80;46.30;;;;;;4973275;28;20027;-59
2023/07/18 05:10:42;;;;;;;3.90;3.50;;;40.80;45.90;;;;;;4973506;28;20034;-59
2023/07/18 05:13:08;;;;;;;4.72;3.42;;;40.80;45.90;;;;;;4973286;28;20035;-59
2023/07/18 05:15:34;;;;;;;3.78;3.17;;;41.00;46.00;;;;;;4973435;28;20037;-60
2023/07/18 05:18:00;;;;;;;4.10;3.42;;;41.10;45.70;;;;;;4972767;28;20056;-60
2023/07/18 05:20:26;;;;;;;4.22;3.72;;;41.40;45.50;;;;;;4969613;28;20031;-59
2023/07/18 05:22:51;;;;;;;3.55;3.25;;;41.60;45.10;;;;;;4967964;28;20034;-59
2023/07/18 05:25:17;;;;;;;10.05;3.72;;;41.70;44.70;;;;;;4972006;28;20402;-58
2023/07/18 05:27:43;;;;;;;5.18;3.42;;;41.70;44.50;;;;;;4972844;28;20038;-59
2023/07/18 05:30:14;;;;;;;4.75;3.70;;;41.50;44.00;;;;;;4972940;28;20471;-57
2023/07/18 05:32:41;;;;;;;4.10;3.70;;;41.10;44.10;;;;;;4973065;28;20117;-58
2023/07/18 05:35:10;;;;;;;5.22;3.88;;;40.50;44.10;;;;;;4962060;28;20043;-57
2023/07/18 05:37:36;;;;;;;7.18;4.20;;;40.00;44.50;;;;;;4964039;28;20018;-56
2023/07/18 05:40:03;;;;;;;4.50;4.10;;;39.30;44.90;;;;;;4965207;28;20035;-58
2023/07/18 05:42:29;;;;;;;4.40;4.00;;;38.60;45.10;;;;;;4970843;28;20031;-58
2023/07/18 05:44:54;;;;;;;5.25;4.20;;;37.90;45.70;;;;;;4965168;28;20035;-57
2023/07/18 05:47:20;;;;;;;4.88;4.30;;;37.20;46.30;;;;;;4964989;28;20030;-58
2023/07/18 05:49:46;;;;;;;4.65;4.10;;;36.60;47.10;;;;;;4967793;28;20696;-60
2023/07/18 05:52:11;;;;;;;6.25;4.10;;;36.10;47.60;;;;;;4967957;28;20027;-58
2023/07/18 05:54:37;;;;;;;6.18;4.57;;;35.70;48.10;;;;;;4959545;28;20110;-57
2023/07/18 05:57:03;;;;;;;6.53;4.50;;;35.30;48.50;;;;;;4959180;28;20050;-58
2023/07/18 05:59:30;;;;;;;5.25;4.70;;;34.90;49.10;;;;;;4963098;28;20026;-59
2023/07/18 06:01:56;;;;;;;6.25;4.70;;;34.60;49.70;;;;;;4963194;28;20110;-57
2023/07/18 06:04:21;;;;;;;6.47;4.68;;;34.30;50.10;;;;;;4960611;28;20582;-59
2023/07/18 06:06:47;;;;;;;4.20;3.80;;;34.00;50.30;;;;;;4966383;28;20039;-57
2023/07/18 06:09:13;;;;;;;5.85;4.43;;;33.70;50.90;;;;;;4967925;28;20117;-59
2023/07/18 06:11:38;;;;;;;4.72;4.22;;;33.40;51.30;;;;;;4963835;28;20035;-57
2023/07/18 06:14:07;;;;;;;5.82;4.82;;;33.20;51.60;;;;;;4960854;28;20023;-57
2023/07/18 06:16:33;;;;;;;6.53;4.55;;;33.00;51.80;;;;;;4961908;28;20759;-58
2023/07/18 06:18:59;;;;;;;6.78;4.70;;;32.80;52.20;;;;;;4963938;28;20101;-58
2023/07/18 06:21:26;;;;;;;5.70;4.63;;;32.70;52.70;;;;;;4962832;28;20814;-57
2023/07/18 06:23:52;;;;;;;8.10;5.32;;;32.50;53.10;;;;;;4964369;28;20023;-59
2023/07/18 06:26:18;;;;;;;5.22;4.72;;;32.30;53.40;;;;;;4964413;28;20494;-58
2023/07/18 06:28:44;;;;;;;6.85;4.85;;;32.10;53.70;;;;;;4961295;28;20031;-57
2023/07/18 06:31:10;;;;;;;5.10;4.60;;;32.00;54.10;;;;;;4963791;28;20039;-58
2023/07/18 06:33:37;;;;;;;5.63;5.03;;;31.80;54.60;;;;;;4966011;28;20070;-58
2023/07/18 06:36:03;;;;;;;5.75;4.65;;;31.70;54.90;;;;;;4967547;28;20034;-56
2023/07/18 06:38:29;;;;;;;5.57;4.93;;;31.50;55.20;;;;;;4962219;28;20016;-58
2023/07/18 06:40:55;;;;;;;6.38;4.93;;;31.40;55.50;;;;;;4968349;28;20354;-58
2023/07/18 06:43:21;;;;;;;5.60;5.00;;;31.30;56.00;;;;;;4965961;28;20042;-58
2023/07/18 06:45:48;;;;;;;7.43;5.53;;;31.20;56.20;;;;;;4966950;28;20035;-58
2023/07/18 06:48:14;;;;;;;5.93;5.32;;;31.10;56.70;;;;;;4969583;28;20751;-59
2023/07/18 06:50:51;;;;;;;6.45;5.75;;;31.00;56.80;;;;;;4968483;28;20474;-56
2023/07/18 06:53:21;;;;;;;9.00;5.57;;;30.90;57.00;;;;;;4974725;28;20039;-56
2023/07/18 06:55:50;;;;;;;5.57;5.05;;;30.80;56.90;;;;;;4966367;28;20058;-58
2023/07/18 06:58:17;;;;;;;6.13;5.53;;;30.70;57.30;;;;;;4965045;28;20049;-55
2023/07/18 07:00:44;;;;;;;7.20;5.72;;;30.60;57.30;;;;;;4971329;28;20038;-58
2023/07/18 07:03:10;;;;;;;6.20;5.40;;;30.60;57.50;;;;;;4965519;28;20058;-57
2023/07/18 07:05:38;;;;;;;7.00;6.20;;;30.60;58.30;;;;;;4961925;28;20027;-58
2023/07/18 07:08:05;;;;;;;8.23;5.25;;;30.60;57.90;;;;;;4966552;28;20498;-59
2023/07/18 07:10:31;;;;;;;6.35;5.45;;;30.60;57.80;;;;;;4968681;28;20037;-59
2023/07/18 07:12:56;;;;;;;6.50;5.90;;;30.70;57.90;;;;;;4964918;28;20110;-59
2023/07/18 07:15:22;;;;;;;5.50;5.00;;;30.70;57.70;;;;;;4966614;28;20047;-59
2023/07/18 07:17:47;;;;;;;7.60;5.47;;;30.70;57.60;;;;;;4953890;28;20050;-58
2023/07/18 07:20:14;;;;;;;7.13;5.00;;;30.80;58.00;;;;;;4951567;28;20468;-57
2023/07/18 07:22:43;;;;;;;8.10;5.53;;;30.90;57.90;;;;;;4942667;28;20035;-58
2023/07/18 07:25:13;;;;;;;10.00;5.63;;;30.90;57.90;;;;;;4952239;28;20093;-57
2023/07/18 07:27:39;;;;;;;6.17;5.33;;;30.90;57.80;;;;;;4956620;28;20470;-60
2023/07/18 07:30:06;;;;;;;5.50;5.00;;;31.00;58.00;;;;;;4957594;28;20030;-60
2023/07/18 07:32:32;;;;;;;6.75;6.13;;;31.00;58.00;;;;;;4961187;28;20033;-58
2023/07/18 07:34:57;;;;;;;6.55;5.60;;;31.00;57.90;;;;;;4961733;28;20035;-58
2023/07/18 07:37:23;;;;;;;5.95;5.35;;;31.00;58.10;;;;;;4957654;28;20044;-59
2023/07/18 07:39:49;;;;;;;7.45;5.35;;;31.00;57.80;;;;;;4958450;28;20046;-56
2023/07/18 07:42:15;;;;;;;6.53;5.93;;;31.00;57.80;;;;;;4957405;28;20031;-60
2023/07/18 07:44:40;;;;;;;7.53;6.15;;;30.90;57.80;;;;;;4956517;28;20545;-57
2023/07/18 07:47:06;;;;;;;6.50;5.90;;;30.90;58.00;;;;;;4956758;28;20035;-58
2023/07/18 07:49:32;;;;;;;6.57;5.82;;;30.90;58.20;;;;;;4963019;28;20782;-59
2023/07/18 07:51:57;;;;;;;8.63;6.18;;;30.80;58.50;;;;;;4959409;28;20068;-59
2023/07/18 07:54:23;;;;;;;7.00;6.30;;;30.80;58.80;;;;;;4960891;28;20050;-58
2023/07/18 07:56:49;;;;;;;6.68;6.07;;;30.70;59.10;;;;;;4961582;28;20039;-56
2023/07/18 07:59:14;;;;;;;9.05;6.28;;;30.70;59.50;;;;;;4961060;28;20074;-59
2023/07/18 08:01:40;;;;;;;7.43;6.50;;;30.70;59.80;;;;;;4962761;28;20058;-59
2023/07/18 08:04:08;;;;;;;8.98;6.90;;;30.60;60.20;;;;;;4961571;28;20027;-60
2023/07/18 08:06:34;;;;;;;8.50;7.00;;;30.60;60.80;;;;;;4955599;28;20058;-59
2023/07/18 08:09:02;;;;;;;9.77;6.50;;;30.60;61.00;;;;;;4955951;28;20122;-58
2023/07/18 08:11:28;;;;;;;9.50;6.75;;;30.50;61.10;;;;;;4960681;28;20423;-58
2023/07/18 08:13:53;;;;;;;7.63;6.65;;;30.50;61.30;;;;;;4957634;28;20098;-58
2023/07/18 08:16:20;;;;;;;7.68;6.97;;;30.40;61.60;;;;;;4958529;28;20540;-58
2023/07/18 08:18:46;;;;;;;7.68;6.88;;;30.40;62.00;;;;;;4955588;28;20050;-55
2023/07/18 08:21:11;;;;;;;7.25;6.55;;;30.30;62.20;;;;;;4966017;28;20034;-58
2023/07/18 08:23:37;;;;;;;8.90;7.07;;;30.20;62.30;;;;;;4965027;28;20410;-57
2023/07/18 08:26:03;;;;;;;8.27;6.70;;;30.20;62.80;;;;;;4949349;28;20067;-61
2023/07/18 08:28:28;;;;;;;7.93;6.53;;;30.10;63.30;;;;;;4962972;28;20565;-57
2023/07/18 08:30:54;;;;;;;6.65;5.95;;;30.10;63.40;;;;;;4957531;28;20034;-59
2023/07/18 08:33:21;;;;;;;7.78;7.00;;;30.10;63.40;;;;;;4959355;28;20026;-57
2023/07/18 08:35:48;;;;;;;6.93;5.50;;;30.10;63.60;;;;;;4958713;28;20553;-59
2023/07/18 08:38:14;;;;;;;7.00;6.07;;;30.10;63.40;;;;;;4953891;28;20031;-57
2023/07/18 08:40:46;;;;;;;7.65;6.28;;;30.10;63.60;;;;;;4958241;28;20059;-59
2023/07/18 08:43:14;;;;;;;6.82;6.13;;;30.10;63.60;;;;;;4961344;28;20027;-58
2023/07/18 08:45:40;;;;;;;6.40;5.80;;;30.10;63.50;;;;;;4955379;28;20039;-58
2023/07/18 08:48:06;;;;;;;6.65;5.68;;;30.10;63.00;;;;;;4954693;28;20031;-59
2023/07/18 08:50:35;;;;;;;6.45;5.63;;;30.20;62.80;;;;;;4955588;28;20547;-59
2023/07/18 08:53:05;;;;;;;6.93;6.22;;;30.20;62.90;;;;;;4956787;28;20062;-60
2023/07/18 08:55:31;;;;;;;6.00;5.22;;;30.30;63.20;;;;;;4959879;28;20031;-58
2023/07/18 08:57:57;;;;;;;14.00;5.35;;;30.40;63.00;;;;;;4960268;28;20152;-60
2023/07/18 09:00:23;;;;;;;6.28;5.25;;;30.50;62.90;;;;;;4944556;28;20584;-59
2023/07/18 09:02:49;;;;;;;7.25;5.10;;;30.50;62.70;;;;;;4947379;28;20113;-59
2023/07/18 09:05:28;;;;;;;9.13;6.68;;;30.50;62.30;;;;;;4955210;28;20050;-59
2023/07/18 09:07:58;;;;;;;7.80;6.10;;;30.60;62.40;;;;;;4957284;28;20118;-59
2023/07/18 09:10:24;;;;;;;;;;;30.60;62.40;;;;;;4955421;28;20062;-59
2023/07/18 09:12:49;;;;;;;6.15;5.55;;;30.60;62.70;;;;;;4951879;28;20028;-60
2023/07/18 09:15:21;;;;;;;6.60;6.00;;;30.60;62.70;;;;;;4954252;28;20101;-59
2023/07/18 09:17:59;;;;;;;6.85;6.05;;;30.60;63.00;;;;;;4952268;28;20071;-56
2023/07/18 09:20:26;;;;;;;7.18;6.47;;;30.50;63.40;;;;;;4954539;28;20026;-58
2023/07/18 09:22:59;;;;;;;7.22;6.40;;;30.40;63.80;;;;;;4955740;28;20042;-59
2023/07/18 09:25:26;;;;;;;6.72;6.03;;;30.30;63.90;;;;;;4954998;28;20054;-59
2023/07/18 09:27:53;;;;;;;7.38;6.60;;;30.20;64.00;;;;;;4956181;28;20031;-58
2023/07/18 09:30:32;;;;;;;7.55;6.80;;;30.10;64.10;;;;;;4956345;28;20704;-60
2023/07/18 09:32:58;;;;;;;7.50;6.80;;;30.10;64.40;;;;;;4953906;28;20046;-59
2023/07/18 09:35:27;;;;;;;8.48;6.80;;;30.00;64.40;;;;;;4953788;28;20039;-59
2023/07/18 09:37:53;;;;;;;7.68;6.88;;;29.90;64.60;;;;;;4951385;28;20035;-56
2023/07/18 09:40:19;;;;;;;7.35;6.30;;;29.90;65.00;;;;;;4958136;28;20041;-56
2023/07/18 09:42:46;;;;;;;7.47;6.68;;;29.80;65.10;;;;;;4954552;28;20035;-58
2023/07/18 09:45:13;;;;;;;7.55;6.85;;;29.80;65.30;;;;;;4952504;28;20039;-52
2023/07/18 09:47:41;;;;;;;7.60;6.78;;;29.70;65.50;;;;;;4954350;28;20027;-59
2023/07/18 09:50:14;;;;;;;6.97;6.38;;;29.60;66.00;;;;;;4948485;28;20280;-60
2023/07/18 09:52:50;;;;;;;9.90;6.60;;;29.50;66.40;;;;;;4954183;28;21054;-59
2023/07/18 09:55:22;;;;;;;7.78;7.00;;;29.50;66.50;;;;;;4953548;28;20126;-57
2023/07/18 09:57:49;;;;;;;7.43;6.72;;;29.40;66.60;;;;;;4950084;28;20042;-59
2023/07/18 10:00:16;;;;;;;7.80;7.00;;;29.30;67.10;;;;;;4957023;28;20038;-58
2023/07/18 10:02:42;;;;;;;9.63;7.18;;;29.30;67.20;;;;;;4959751;28;20031;-60
2023/07/18 10:05:14;;;;;;;7.18;6.50;;;29.20;67.10;;;;;;4959842;28;20062;-59
2023/07/18 10:07:41;;;;;;;6.75;6.10;;;29.20;67.10;;;;;;4960813;28;20471;-58
2023/07/18 10:10:08;;;;;;;8.07;7.28;;;29.20;67.40;;;;;;4955683;28;20023;-59
2023/07/18 10:12:54;;;;;;;7.43;6.72;;;29.20;67.90;;;;;;4956487;28;20027;-60
2023/07/18 10:15:21;;;;;;;8.90;7.10;;;29.20;68.20;;;;;;4949468;28;20145;-59
2023/07/18 10:17:47;;;;;;;8.05;7.20;;;29.20;68.30;;;;;;4953880;28;20055;-60
2023/07/18 10:20:19;;;;;;;9.32;6.63;;;29.20;68.40;;;;;;4956648;28;22699;-61
2023/07/18 10:22:46;;;;;;;8.10;7.28;;;29.20;68.40;;;;;;4954993;28;20565;-56
2023/07/18 10:25:12;;;;;;;7.20;6.50;;;29.20;68.50;;;;;;4957503;28;20027;-59
2023/07/18 10:27:40;;;;;;;7.10;6.40;;;29.20;68.80;;;;;;4957736;28;20496;-58
2023/07/18 10:30:07;;;;;;;7.53;6.82;;;29.20;69.00;;;;;;4951910;28;20039;-57
2023/07/18 10:32:34;;;;;;;7.72;7.03;;;29.10;69.10;;;;;;4958068;28;20035;-60
2023/07/18 10:35:06;;;;;;;7.68;6.88;;;29.10;69.40;;;;;;4954078;28;20125;-58
2023/07/18 10:37:32;;;;;;;8.15;7.45;;;29.10;69.80;;;;;;4953139;28;20435;-58
2023/07/18 10:39:59;;;;;;;7.82;7.05;;;29.00;70.10;;;;;;4963895;28;20034;-59
2023/07/18 10:42:29;;;;;;;8.60;7.80;;;29.00;70.30;;;;;;4956872;28;20045;-56
2023/07/18 10:45:07;;;;;;;9.82;8.90;;;29.00;70.60;;;;;;4961671;28;20086;-58
2023/07/18 10:47:37;;;;;;;8.95;8.15;;;29.00;70.80;;;;;;4951635;28;20035;-59
2023/07/18 10:50:04;;;;;;;9.55;8.65;;;28.90;70.80;;;;;;4948805;28;20031;-58
2023/07/18 10:52:30;;;;;;;9.82;8.93;;;28.90;71.10;;;;;;4952214;28;20062;-57
2023/07/18 10:55:00;;;;;;;10.23;9.23;;;28.90;71.30;;;;;;4947473;28;20030;-61
2023/07/18 10:57:32;;;;;;;11.57;10.38;;;28.90;71.40;;;;;;4952168;28;20043;-57
2023/07/18 10:59:59;;;;;;;11.15;10.15;;;28.90;71.20;;;;;;4953733;28;20027;-57
2023/07/18 11:02:26;;;;;;;11.88;10.77;;;28.90;71.10;;;;;;4960099;28;20030;-57
2023/07/18 11:04:53;;;;;;;11.13;10.13;;;28.90;71.40;;;;;;4950873;28;20403;-58
2023/07/18 11:07:31;;;;;;;11.38;10.38;;;28.80;71.30;;;;;;4956622;28;20066;-57
2023/07/18 11:09:57;;;;;;;10.98;10.00;;;28.80;71.30;;;;;;4955850;28;20110;-57
2023/07/18 11:12:23;;;;;;;11.20;10.13;;;28.80;71.30;;;;;;4955431;28;20053;-57
2023/07/18 11:14:48;;;;;;;10.63;9.63;;;28.80;71.00;;;;;;4953220;28;20050;-56
2023/07/18 11:17:18;;;;;;;9.65;8.75;;;28.80;70.50;;;;;;4958265;28;20446;-56
2023/07/18 11:19:45;;;;;;;9.45;8.55;;;28.70;70.40;;;;;;4957826;28;20032;-58
2023/07/18 11:22:13;;;;;;;9.10;8.30;;;28.70;70.30;;;;;;4956462;28;20043;-58
2023/07/18 11:24:42;;;;;;;8.48;7.68;;;28.60;70.20;;;;;;4959148;28;20029;-59
2023/07/18 11:27:19;;;;;;;8.07;7.37;;;28.60;70.20;;;;;;4958666;28;20031;-57
2023/07/18 11:29:59;;;;;;;7.57;6.88;;;28.60;70.00;;;;;;4957476;28;20848;-59
2023/07/18 11:32:39;;;;;;;7.55;6.85;;;28.60;69.90;;;;;;4957844;28;20114;-57
2023/07/18 11:35:23;;;;;;;7.10;6.50;;;28.60;69.70;;;;;;4959881;28;20039;-59
2023/07/18 11:37:52;;;;;;;6.82;6.03;;;28.60;69.40;;;;;;4958021;28;20066;-55
2023/07/18 11:40:21;;;;;;;7.03;6.38;;;28.60;69.20;;;;;;4954927;28;20063;-57
2023/07/18 11:42:52;;;;;;;6.85;5.82;;;28.50;69.00;;;;;;4958392;28;20042;-56
2023/07/18 11:45:22;;;;;;;6.65;5.90;;;28.50;69.10;;;;;;4950366;28;20031;-55
2023/07/18 11:47:57;;;;;;;7.72;6.30;;;28.50;69.20;;;;;;4950622;28;20078;-58
2023/07/18 11:50:27;;;;;;;8.82;6.60;;;28.50;69.30;;;;;;4954146;28;20566;-58
2023/07/18 11:52:53;;;;;;;7.15;6.45;;;28.50;69.40;;;;;;4952236;28;20031;-60
2023/07/18 11:55:21;;;;;;;7.35;6.65;;;28.50;69.70;;;;;;4955734;28;20042;-59
2023/07/18 11:57:48;;;;;;;7.00;6.30;;;28.60;69.70;;;;;;4953659;28;20097;-53
2023/07/18 12:00:15;;;;;;;6.72;6.03;;;28.60;69.70;;;;;;4953706;28;20033;-56
2023/07/18 12:02:43;;;;;;;6.60;5.95;;;28.60;69.60;;;;;;4957817;28;20031;-59
2023/07/18 12:05:10;;;;;;;5.82;5.22;;;28.60;69.30;;;;;;4960436;28;20475;-59
2023/07/18 12:07:36;;;;;;;6.22;5.63;;;28.60;69.00;;;;;;4956218;28;20109;-56
2023/07/18 12:10:06;;;;;;;6.10;5.50;;;28.60;68.90;;;;;;4958201;28;20093;-59
2023/07/18 12:12:36;;;;;;;7.10;5.70;;;28.60;68.80;;;;;;4958788;28;20523;-58
2023/07/18 12:15:02;;;;;;;6.13;4.57;;;28.60;68.60;;;;;;4954099;28;20050;-61
2023/07/18 12:17:27;;;;;;;5.57;5.07;;;28.50;68.30;;;;;;4962964;28;20030;-59
2023/07/18 12:19:53;;;;;;;5.55;5.05;;;28.50;68.10;;;;;;4951550;28;20027;-56
2023/07/18 12:22:19;;;;;;;7.88;5.38;;;28.50;68.00;;;;;;4960290;28;20127;-58
2023/07/18 12:24:45;;;;;;;5.53;4.93;;;28.40;67.90;;;;;;4964011;28;20070;-60
2023/07/18 12:27:12;;;;;;;5.53;5.03;;;28.40;68.00;;;;;;4956268;28;20049;-57
2023/07/18 12:29:38;;;;;;;5.57;5.07;;;28.40;68.00;;;;;;4956586;28;20026;-59
2023/07/18 12:32:05;;;;;;;5.28;4.78;;;28.30;68.10;;;;;;4953394;28;20034;-60
2023/07/18 12:34:31;;;;;;;6.68;4.53;;;28.30;68.30;;;;;;4956857;28;20081;-58
2023/07/18 12:36:56;;;;;;;5.28;4.78;;;28.20;68.20;;;;;;4958705;28;20134;-59
2023/07/18 12:39:22;;;;;;;4.97;4.47;;;28.20;68.10;;;;;;4955256;28;20479;-58
2023/07/18 12:41:49;;;;;;;4.75;4.28;;;28.10;68.30;;;;;;4955835;28;20026;-59
2023/07/18 12:44:19;;;;;;;5.18;4.65;;;28.10;68.50;;;;;;4956177;28;20031;-59